sensor_id;sensor_type;location;lat;lon;timestamp;pressure;altitude;pressure_sealevel;temperature;humidity
15604;BME280;7902;49.042;9.092;2023-02-15T00:01:52;100495.03;;;6.58;62.64
15604;BME280;7902;49.042;9.092;2023-02-15T00:04:20;100499.13;;;6.40;63.63
15604;BME280;7902;49.042;9.092;2023-02-15T00:06:47;100489.97;;;6.53;62.99
15604;BME280;7902;49.042;9.092;2023-02-15T00:09:13;100493.75;;;6.45;62.88
15604;BME280;7902;49.042;9.092;2023-02-15T00:11:39;100492.94;;;6.43;63.44
15604;BME280;7902;49.042;9.092;2023-02-15T00:16:36;100487.16;;;6.33;63.72
15604;BME280;7902;49.042;9.092;2023-02-15T00:19:03;100483.66;;;6.34;63.28
15604;BME280;7902;49.042;9.092;2023-02-15T00:21:30;100486.16;;;6.37;63.80
15604;BME280;7902;49.042;9.092;2023-02-15T00:23:58;100485.25;;;6.38;62.95
15604;BME280;7902;49.042;9.092;2023-02-15T00:26:24;100485.22;;;6.40;63.09
15604;BME280;7902;49.042;9.092;2023-02-15T00:28:50;100483.03;;;6.52;63.19
15604;BME280;7902;49.042;9.092;2023-02-15T00:31:17;100484.63;;;6.56;62.91
15604;BME280;7902;49.042;9.092;2023-02-15T00:33:42;100486.06;;;6.65;63.00
15604;BME280;7902;49.042;9.092;2023-02-15T00:36:11;100486.69;;;6.47;62.68
15604;BME280;7902;49.042;9.092;2023-02-15T00:38:38;100490.06;;;6.50;62.87
15604;BME280;7902;49.042;9.092;2023-02-15T00:41:06;100484.63;;;6.56;63.27
15604;BME280;7902;49.042;9.092;2023-02-15T00:43:33;100476.06;;;6.53;62.69
15604;BME280;7902;49.042;9.092;2023-02-15T00:46:00;100484.25;;;6.42;63.70
15604;BME280;7902;49.042;9.092;2023-02-15T00:48:26;100475.38;;;6.48;62.76
15604;BME280;7902;49.042;9.092;2023-02-15T00:50:55;100481.31;;;6.51;63.00
15604;BME280;7902;49.042;9.092;2023-02-15T00:53:22;100477.16;;;6.46;63.21
15604;BME280;7902;49.042;9.092;2023-02-15T00:55:48;100479.44;;;6.30;63.43
15604;BME280;7902;49.042;9.092;2023-02-15T00:58:15;100476.69;;;6.35;63.43
15604;BME280;7902;49.042;9.092;2023-02-15T01:00:43;100479.28;;;6.35;63.47
15604;BME280;7902;49.042;9.092;2023-02-15T01:03:10;100481.84;;;6.36;63.18
15604;BME280;7902;49.042;9.092;2023-02-15T01:05:36;100473.63;;;6.22;63.44
15604;BME280;7902;49.042;9.092;2023-02-15T01:08:02;100477.59;;;6.34;63.89
15604;BME280;7902;49.042;9.092;2023-02-15T01:10:28;100479.28;;;6.35;63.96
15604;BME280;7902;49.042;9.092;2023-02-15T01:12:55;100477.44;;;6.38;63.47
15604;BME280;7902;49.042;9.092;2023-02-15T01:15:21;100479.34;;;6.33;63.82
15604;BME280;7902;49.042;9.092;2023-02-15T01:17:47;100480.97;;;6.36;63.80
15604;BME280;7902;49.042;9.092;2023-02-15T01:20:23;100482.59;;;6.40;63.08
15604;BME280;7902;49.042;9.092;2023-02-15T01:22:50;100478.88;;;6.47;62.88
15604;BME280;7902;49.042;9.092;2023-02-15T01:25:17;100478.16;;;6.42;63.72
15604;BME280;7902;49.042;9.092;2023-02-15T01:27:43;100472.88;;;6.45;63.24
15604;BME280;7902;49.042;9.092;2023-02-15T01:30:10;100473.31;;;6.31;63.49
15604;BME280;7902;49.042;9.092;2023-02-15T01:32:36;100475.56;;;6.42;63.40
15604;BME280;7902;49.042;9.092;2023-02-15T01:35:02;100472.31;;;6.35;63.37
15604;BME280;7902;49.042;9.092;2023-02-15T01:37:30;100461.72;;;6.40;63.52
15604;BME280;7902;49.042;9.092;2023-02-15T01:39:56;100463.41;;;6.41;62.95
15604;BME280;7902;49.042;9.092;2023-02-15T01:42:24;100466.69;;;6.47;63.03
15604;BME280;7902;49.042;9.092;2023-02-15T01:44:52;100471.00;;;6.48;63.22
15604;BME280;7902;49.042;9.092;2023-02-15T01:50:15;100468.47;;;6.45;62.61
15604;BME280;7902;49.042;9.092;2023-02-15T01:55:37;100464.13;;;6.46;63.01
15604;BME280;7902;49.042;9.092;2023-02-15T01:58:05;100461.19;;;6.55;63.35
15604;BME280;7902;49.042;9.092;2023-02-15T02:00:33;100449.16;;;6.51;62.69
15604;BME280;7902;49.042;9.092;2023-02-15T02:06:04;100450.00;;;6.51;63.41
15604;BME280;7902;49.042;9.092;2023-02-15T02:08:31;100448.47;;;6.46;63.48
15604;BME280;7902;49.042;9.092;2023-02-15T02:10:58;100458.75;;;6.50;62.91
15604;BME280;7902;49.042;9.092;2023-02-15T02:13:24;100455.66;;;6.39;63.23
15604;BME280;7902;49.042;9.092;2023-02-15T02:16:00;100457.72;;;6.30;63.77
15604;BME280;7902;49.042;9.092;2023-02-15T02:18:37;100450.63;;;6.33;63.57
15604;BME280;7902;49.042;9.092;2023-02-15T02:32:44;100439.84;;;6.44;62.92
15604;BME280;7902;49.042;9.092;2023-02-15T02:38:32;100438.25;;;6.40;63.44
15604;BME280;7902;49.042;9.092;2023-02-15T02:41:17;100434.69;;;6.42;63.22
15604;BME280;7902;49.042;9.092;2023-02-15T02:49:34;100428.50;;;6.20;63.50
15604;BME280;7902;49.042;9.092;2023-02-15T02:52:03;100422.53;;;6.16;63.33
15604;BME280;7902;49.042;9.092;2023-02-15T02:54:30;100430.44;;;6.13;63.96
15604;BME280;7902;49.042;9.092;2023-02-15T02:57:00;100418.88;;;5.96;64.44
15604;BME280;7902;49.042;9.092;2023-02-15T02:59:30;100413.34;;;6.05;63.83
15604;BME280;7902;49.042;9.092;2023-02-15T03:02:13;100406.97;;;6.13;64.07
15604;BME280;7902;49.042;9.092;2023-02-15T03:04:46;100409.72;;;6.09;64.12
15604;BME280;7902;49.042;9.092;2023-02-15T03:07:18;100413.16;;;6.11;63.61
15604;BME280;7902;49.042;9.092;2023-02-15T03:09:51;100413.75;;;6.19;64.17
15604;BME280;7902;49.042;9.092;2023-02-15T03:12:28;100415.91;;;6.31;62.92
15604;BME280;7902;49.042;9.092;2023-02-15T03:15:04;100404.50;;;6.35;62.82
15604;BME280;7902;49.042;9.092;2023-02-15T03:17:32;100406.97;;;6.13;63.83
15604;BME280;7902;49.042;9.092;2023-02-15T03:20:04;100408.28;;;6.00;63.27
15604;BME280;7902;49.042;9.092;2023-02-15T03:22:59;100415.13;;;6.03;63.60
15604;BME280;7902;49.042;9.092;2023-02-15T03:25:31;100411.97;;;6.20;63.53
15604;BME280;7902;49.042;9.092;2023-02-15T03:28:20;100412.25;;;6.12;63.84
15604;BME280;7902;49.042;9.092;2023-02-15T03:30:52;100421.97;;;6.07;63.92
15604;BME280;7902;49.042;9.092;2023-02-15T03:33:20;100422.38;;;5.95;64.35
15604;BME280;7902;49.042;9.092;2023-02-15T03:36:21;100417.75;;;6.03;63.33
15604;BME280;7902;49.042;9.092;2023-02-15T03:39:01;100416.66;;;6.10;63.47
15604;BME280;7902;49.042;9.092;2023-02-15T03:41:33;100423.66;;;6.08;63.88
15604;BME280;7902;49.042;9.092;2023-02-15T03:47:08;100421.97;;;6.07;63.86
15604;BME280;7902;49.042;9.092;2023-02-15T03:49:58;100413.22;;;6.08;63.54
15604;BME280;7902;49.042;9.092;2023-02-15T03:52:27;100415.94;;;6.05;63.80
15604;BME280;7902;49.042;9.092;2023-02-15T03:54:55;100414.09;;;6.08;63.48
15604;BME280;7902;49.042;9.092;2023-02-15T03:57:24;100418.44;;;6.08;63.80
15604;BME280;7902;49.042;9.092;2023-02-15T04:00:18;100420.50;;;5.98;64.01
15604;BME280;7902;49.042;9.092;2023-02-15T04:05:33;100424.19;;;5.93;64.20
15604;BME280;7902;49.042;9.092;2023-02-15T04:07:59;100420.72;;;5.92;64.41
15604;BME280;7902;49.042;9.092;2023-02-15T04:10:25;100413.19;;;6.09;63.99
15604;BME280;7902;49.042;9.092;2023-02-15T04:13:09;100418.44;;;6.08;63.47
15604;BME280;7902;49.042;9.092;2023-02-15T04:15:35;100421.91;;;6.08;63.76
15604;BME280;7902;49.042;9.092;2023-02-15T04:18:20;100414.34;;;6.01;63.88
15604;BME280;7902;49.042;9.092;2023-02-15T04:20:46;100405.63;;;6.02;64.01
15604;BME280;7902;49.042;9.092;2023-02-15T04:23:31;100410.69;;;6.06;63.46
15604;BME280;7902;49.042;9.092;2023-02-15T04:26:16;100410.00;;;6.01;63.49
15604;BME280;7902;49.042;9.092;2023-02-15T04:28:42;100403.81;;;6.04;63.71
15604;BME280;7902;49.042;9.092;2023-02-15T04:31:08;100408.75;;;5.87;64.25
15604;BME280;7902;49.042;9.092;2023-02-15T04:33:34;100405.38;;;5.82;64.38
15604;BME280;7902;49.042;9.092;2023-02-15T04:36:03;100403.97;;;5.71;64.58
15604;BME280;7902;49.042;9.092;2023-02-15T04:38:29;100397.84;;;5.74;64.73
15604;BME280;7902;49.042;9.092;2023-02-15T04:40:55;100408.75;;;5.87;63.85
15604;BME280;7902;49.042;9.092;2023-02-15T04:43:21;100404.56;;;5.80;63.82
15604;BME280;7902;49.042;9.092;2023-02-15T04:45:48;100404.78;;;5.73;64.17
15604;BME280;7902;49.042;9.092;2023-02-15T04:48:16;100404.56;;;5.80;64.38
15604;BME280;7902;49.042;9.092;2023-02-15T04:50:43;100396.56;;;5.87;63.60
15604;BME280;7902;49.042;9.092;2023-02-15T04:53:09;100395.72;;;5.85;63.79
15604;BME280;7902;49.042;9.092;2023-02-15T04:55:35;100397.16;;;5.95;63.85
15604;BME280;7902;49.042;9.092;2023-02-15T04:58:01;100415.56;;;5.91;63.62
15604;BME280;7902;49.042;9.092;2023-02-15T05:00:27;100405.88;;;5.94;63.52
15604;BME280;7902;49.042;9.092;2023-02-15T05:02:53;100400.81;;;5.90;63.54
15604;BME280;7902;49.042;9.092;2023-02-15T05:05:19;100397.34;;;5.89;63.65
15604;BME280;7902;49.042;9.092;2023-02-15T05:07:45;100391.78;;;6.00;63.21
15604;BME280;7902;49.042;9.092;2023-02-15T05:10:11;100400.72;;;5.93;63.57
15604;BME280;7902;49.042;9.092;2023-02-15T05:12:37;100387.69;;;5.93;63.23
15604;BME280;7902;49.042;9.092;2023-02-15T05:15:03;100391.53;;;5.80;63.59
15604;BME280;7902;49.042;9.092;2023-02-15T05:17:28;100395.72;;;5.85;64.06
15604;BME280;7902;49.042;9.092;2023-02-15T05:19:54;100396.56;;;5.86;63.58
15604;BME280;7902;49.042;9.092;2023-02-15T05:22:20;100395.06;;;5.79;64.04
15604;BME280;7902;49.042;9.092;2023-02-15T05:24:46;100399.50;;;5.75;64.56
15604;BME280;7902;49.042;9.092;2023-02-15T05:27:30;100392.63;;;5.74;63.91
15604;BME280;7902;49.042;9.092;2023-02-15T05:30:15;100393.25;;;5.81;63.94
15604;BME280;7902;49.042;9.092;2023-02-15T05:32:41;100388.75;;;5.87;63.53
15604;BME280;7902;49.042;9.092;2023-02-15T05:35:07;100378.16;;;5.92;63.43
15604;BME280;7902;49.042;9.092;2023-02-15T05:37:33;100384.56;;;5.80;63.96
15604;BME280;7902;49.042;9.092;2023-02-15T05:39:59;100384.66;;;5.79;64.15
15604;BME280;7902;49.042;9.092;2023-02-15T05:42:25;100387.97;;;5.84;63.64
15604;BME280;7902;49.042;9.092;2023-02-15T05:44:51;100385.69;;;5.73;63.57
15604;BME280;7902;49.042;9.092;2023-02-15T05:47:16;100376.50;;;5.89;63.91
15604;BME280;7902;49.042;9.092;2023-02-15T05:49:42;100376.06;;;5.75;63.87
15604;BME280;7902;49.042;9.092;2023-02-15T05:52:08;100374.94;;;5.84;63.59
15604;BME280;7902;49.042;9.092;2023-02-15T05:54:34;100383.69;;;5.81;63.72
15604;BME280;7902;49.042;9.092;2023-02-15T05:57:00;100380.16;;;5.84;63.41
15604;BME280;7902;49.042;9.092;2023-02-15T05:59:26;100390.50;;;5.87;63.72
15604;BME280;7902;49.042;9.092;2023-02-15T06:01:52;100392.22;;;5.86;63.55
15604;BME280;7902;49.042;9.092;2023-02-15T06:04:18;100402.69;;;5.85;63.04
15604;BME280;7902;49.042;9.092;2023-02-15T06:06:43;100397.69;;;5.79;63.27
15604;BME280;7902;49.042;9.092;2023-02-15T06:09:11;100397.16;;;5.67;64.03
15604;BME280;7902;49.042;9.092;2023-02-15T06:11:38;100407.47;;;5.70;63.15
15604;BME280;7902;49.042;9.092;2023-02-15T06:14:03;100397.41;;;5.60;63.76
15604;BME280;7902;49.042;9.092;2023-02-15T06:16:29;100414.66;;;5.64;63.80
15604;BME280;7902;49.042;9.092;2023-02-15T06:18:55;100413.97;;;5.57;64.00
15604;BME280;7902;49.042;9.092;2023-02-15T06:21:21;100417.34;;;5.61;63.96
15604;BME280;7902;49.042;9.092;2023-02-15T06:23:47;100421.91;;;5.54;63.72
15604;BME280;7902;49.042;9.092;2023-02-15T06:26:13;100417.34;;;5.61;63.68
15604;BME280;7902;49.042;9.092;2023-02-15T06:28:39;100416.03;;;5.48;64.50
15604;BME280;7902;49.042;9.092;2023-02-15T06:31:06;100423.69;;;5.52;64.11
15604;BME280;7902;49.042;9.092;2023-02-15T06:33:32;100416.59;;;5.57;63.74
15604;BME280;7902;49.042;9.092;2023-02-15T06:36:00;100421.06;;;5.54;63.91
15604;BME280;7902;49.042;9.092;2023-02-15T06:38:26;100422.69;;;5.56;63.50
15604;BME280;7902;49.042;9.092;2023-02-15T06:40:52;100420.09;;;5.56;63.51
15604;BME280;7902;49.042;9.092;2023-02-15T06:43:18;100417.59;;;5.53;63.68
15604;BME280;7902;49.042;9.092;2023-02-15T06:45:44;100425.31;;;5.56;63.76
15604;BME280;7902;49.042;9.092;2023-02-15T06:48:10;100427.19;;;5.51;63.41
15604;BME280;7902;49.042;9.092;2023-02-15T06:50:37;100423.63;;;5.55;64.12
15604;BME280;7902;49.042;9.092;2023-02-15T06:53:03;100426.28;;;5.52;63.37
15604;BME280;7902;49.042;9.092;2023-02-15T06:55:29;100422.56;;;5.61;63.76
15604;BME280;7902;49.042;9.092;2023-02-15T06:57:55;100437.31;;;5.60;63.61
15604;BME280;7902;49.042;9.092;2023-02-15T07:00:21;100430.31;;;5.62;63.52
15604;BME280;7902;49.042;9.092;2023-02-15T07:02:58;100437.56;;;5.53;63.27
15604;BME280;7902;49.042;9.092;2023-02-15T07:05:25;100442.63;;;5.57;63.50
15604;BME280;7902;49.042;9.092;2023-02-15T07:07:57;100442.75;;;5.54;63.44
15604;BME280;7902;49.042;9.092;2023-02-15T07:10:23;100445.44;;;5.51;63.04
15604;BME280;7902;49.042;9.092;2023-02-15T07:12:49;100437.53;;;5.54;63.12
15604;BME280;7902;49.042;9.092;2023-02-15T07:15:17;100444.72;;;5.46;63.56
15604;BME280;7902;49.042;9.092;2023-02-15T07:17:44;100443.06;;;5.44;63.73
15604;BME280;7902;49.042;9.092;2023-02-15T07:20:13;100443.75;;;5.50;63.35
15604;BME280;7902;49.042;9.092;2023-02-15T07:22:39;100447.47;;;5.42;63.45
15604;BME280;7902;49.042;9.092;2023-02-15T07:25:06;100450.03;;;5.43;63.18
15604;BME280;7902;49.042;9.092;2023-02-15T07:27:32;100444.34;;;5.58;63.37
15604;BME280;7902;49.042;9.092;2023-02-15T07:29:58;100441.94;;;5.52;63.59
15604;BME280;7902;49.042;9.092;2023-02-15T07:32:27;100444.47;;;5.55;63.45
15604;BME280;7902;49.042;9.092;2023-02-15T07:34:53;100438.00;;;5.39;63.43
15604;BME280;7902;49.042;9.092;2023-02-15T07:37:19;100439.31;;;5.52;63.45
15604;BME280;7902;49.042;9.092;2023-02-15T07:39:45;100436.38;;;5.35;63.50
15604;BME280;7902;49.042;9.092;2023-02-15T07:42:11;100436.28;;;5.38;63.74
15604;BME280;7902;49.042;9.092;2023-02-15T07:44:37;100445.09;;;5.34;63.78
15604;BME280;7902;49.042;9.092;2023-02-15T07:47:02;100434.63;;;5.36;63.52
15604;BME280;7902;49.042;9.092;2023-02-15T07:49:28;100440.47;;;5.44;63.53
15604;BME280;7902;49.042;9.092;2023-02-15T07:51:54;100430.78;;;5.47;63.56
15604;BME280;7902;49.042;9.092;2023-02-15T07:54:20;100438.59;;;5.47;63.08
15604;BME280;7902;49.042;9.092;2023-02-15T07:56:46;100440.28;;;5.50;63.43
15604;BME280;7902;49.042;9.092;2023-02-15T07:59:12;100445.25;;;5.57;63.43
15604;BME280;7902;49.042;9.092;2023-02-15T08:01:39;100452.44;;;5.49;62.78
15604;BME280;7902;49.042;9.092;2023-02-15T08:04:06;100441.28;;;5.46;63.36
15604;BME280;7902;49.042;9.092;2023-02-15T08:06:34;100444.53;;;5.52;63.05
15604;BME280;7902;49.042;9.092;2023-02-15T08:09:02;100439.94;;;5.60;62.44
15604;BME280;7902;49.042;9.092;2023-02-15T08:11:31;100437.47;;;5.56;63.24
15604;BME280;7902;49.042;9.092;2023-02-15T08:14:13;100444.53;;;5.52;62.91
15604;BME280;7902;49.042;9.092;2023-02-15T08:16:47;100445.97;;;5.62;62.88
15604;BME280;7902;49.042;9.092;2023-02-15T08:19:27;100437.63;;;5.79;62.92
15604;BME280;7902;49.042;9.092;2023-02-15T08:22:05;100446.13;;;5.84;62.42
15604;BME280;7902;49.042;9.092;2023-02-15T08:24:34;100446.13;;;5.84;61.68
15604;BME280;7902;49.042;9.092;2023-02-15T08:27:00;100431.16;;;5.64;62.83
15604;BME280;7902;49.042;9.092;2023-02-15T08:29:29;100445.78;;;5.68;62.53
15604;BME280;7902;49.042;9.092;2023-02-15T08:32:01;100447.56;;;5.66;62.87
15604;BME280;7902;49.042;9.092;2023-02-15T08:34:29;100442.94;;;5.76;62.15
15604;BME280;7902;49.042;9.092;2023-02-15T08:36:56;100441.28;;;5.73;62.15
15604;BME280;7902;49.042;9.092;2023-02-15T08:39:22;100438.84;;;5.67;62.33
15604;BME280;7902;49.042;9.092;2023-02-15T08:41:48;100441.44;;;5.69;62.77
15604;BME280;7902;49.042;9.092;2023-02-15T08:44:16;100432.09;;;5.90;62.43
15604;BME280;7902;49.042;9.092;2023-02-15T08:46:44;100426.78;;;5.93;62.28
15604;BME280;7902;49.042;9.092;2023-02-15T08:49:15;100422.56;;;6.15;61.72
15604;BME280;7902;49.042;9.092;2023-02-15T08:51:41;100428.44;;;5.67;62.63
15604;BME280;7902;49.042;9.092;2023-02-15T08:54:10;100429.25;;;5.69;62.12
15604;BME280;7902;49.042;9.092;2023-02-15T08:56:39;100428.44;;;5.67;62.24
15604;BME280;7902;49.042;9.092;2023-02-15T08:59:07;100419.91;;;5.62;62.47
15604;BME280;7902;49.042;9.092;2023-02-15T09:01:34;100423.50;;;5.58;62.55
15604;BME280;7902;49.042;9.092;2023-02-15T09:04:03;100424.06;;;5.68;62.79
15604;BME280;7902;49.042;9.092;2023-02-15T09:06:35;100419.38;;;5.79;62.92
15604;BME280;7902;49.042;9.092;2023-02-15T09:09:01;100420.06;;;5.84;62.34
15604;BME280;7902;49.042;9.092;2023-02-15T09:11:29;100420.06;;;5.84;62.52
15604;BME280;7902;49.042;9.092;2023-02-15T09:14:04;100425.09;;;5.92;62.36
15604;BME280;7902;49.042;9.092;2023-02-15T09:16:33;100417.41;;;6.13;61.52
15604;BME280;7902;49.042;9.092;2023-02-15T09:18:59;100421.66;;;5.90;61.93
15604;BME280;7902;49.042;9.092;2023-02-15T09:21:28;100417.00;;;5.71;62.51
15604;BME280;7902;49.042;9.092;2023-02-15T09:23:59;100410.19;;;5.67;62.98
15604;BME280;7902;49.042;9.092;2023-02-15T09:26:26;100403.78;;;5.78;62.43
15604;BME280;7902;49.042;9.092;2023-02-15T09:28:55;100399.09;;;5.89;62.28
15604;BME280;7902;49.042;9.092;2023-02-15T09:31:24;100394.81;;;5.88;62.74
15604;BME280;7902;49.042;9.092;2023-02-15T09:33:50;100394.50;;;5.97;62.51
15604;BME280;7902;49.042;9.092;2023-02-15T09:38:45;100396.47;;;5.89;63.02
15604;BME280;7902;49.042;9.092;2023-02-15T10:00:02;100390.78;;;6.04;62.17
15604;BME280;7902;49.042;9.092;2023-02-15T10:11:09;100379.44;;;6.05;62.88
15604;BME280;7902;49.042;9.092;2023-02-15T10:17:00;100377.22;;;6.19;62.57
15604;BME280;7902;49.042;9.092;2023-02-15T10:19:45;100384.84;;;6.25;62.72
15604;BME280;7902;49.042;9.092;2023-02-15T10:22:37;100381.38;;;6.25;63.31
15604;BME280;7902;49.042;9.092;2023-02-15T10:27:49;100380.16;;;6.10;62.76
15604;BME280;7902;49.042;9.092;2023-02-15T10:30:31;100382.63;;;6.13;62.59
15604;BME280;7902;49.042;9.092;2023-02-15T10:33:02;100386.84;;;6.17;62.54
15604;BME280;7902;49.042;9.092;2023-02-15T10:35:37;100385.06;;;6.19;62.62
15604;BME280;7902;49.042;9.092;2023-02-15T10:41:35;100376.75;;;6.33;61.82
15604;BME280;7902;49.042;9.092;2023-02-15T11:06:25;100357.41;;;6.63;62.35
15604;BME280;7902;49.042;9.092;2023-02-15T11:08:59;100353.69;;;6.69;61.73
15604;BME280;7902;49.042;9.092;2023-02-15T11:11:35;100347.81;;;6.87;61.84
15604;BME280;7902;49.042;9.092;2023-02-15T11:14:08;100352.91;;;6.90;61.65
15604;BME280;7902;49.042;9.092;2023-02-15T11:16:39;100352.44;;;7.02;61.82
15604;BME280;7902;49.042;9.092;2023-02-15T11:21:48;100350.75;;;7.01;61.28
15604;BME280;7902;49.042;9.092;2023-02-15T11:24:18;100350.94;;;7.18;60.71
15604;BME280;7902;49.042;9.092;2023-02-15T11:26:54;100352.06;;;7.11;61.83
15604;BME280;7902;49.042;9.092;2023-02-15T11:29:38;100352.34;;;7.27;60.82
15604;BME280;7902;49.042;9.092;2023-02-15T11:32:19;100351.56;;;7.25;61.46
15604;BME280;7902;49.042;9.092;2023-02-15T11:38:14;100350.94;;;7.40;60.64
15604;BME280;7902;49.042;9.092;2023-02-15T11:42:53;100330.72;;;7.45;61.01
15604;BME280;7902;49.042;9.092;2023-02-15T11:45:22;100337.03;;;7.39;60.78
15604;BME280;7902;49.042;9.092;2023-02-15T11:47:49;100336.22;;;7.39;60.84
15604;BME280;7902;49.042;9.092;2023-02-15T11:50:19;100338.28;;;7.53;60.78
15604;BME280;7902;49.042;9.092;2023-02-15T11:52:52;100326.88;;;7.54;61.25
15604;BME280;7902;49.042;9.092;2023-02-15T11:55:21;100321.22;;;7.64;60.15
15604;BME280;7902;49.042;9.092;2023-02-15T12:00:52;100324.53;;;7.47;60.62
15604;BME280;7902;49.042;9.092;2023-02-15T12:03:44;100322.63;;;7.51;60.71
15604;BME280;7902;49.042;9.092;2023-02-15T12:06:22;100316.56;;;7.50;60.19
15604;BME280;7902;49.042;9.092;2023-02-15T12:08:57;100307.09;;;7.48;60.49
15604;BME280;7902;49.042;9.092;2023-02-15T12:11:37;100304.28;;;7.53;60.70
15604;BME280;7902;49.042;9.092;2023-02-15T12:14:13;100301.69;;;7.53;60.88
15604;BME280;7902;49.042;9.092;2023-02-15T12:16:49;100296.56;;;7.49;60.61
15604;BME280;7902;49.042;9.092;2023-02-15T12:19:38;100298.41;;;7.47;60.51
15604;BME280;7902;49.042;9.092;2023-02-15T12:22:34;100300.69;;;7.55;60.93
15604;BME280;7902;49.042;9.092;2023-02-15T12:25:11;100300.09;;;7.48;60.47
15604;BME280;7902;49.042;9.092;2023-02-15T12:27:45;100299.25;;;7.48;60.17
15604;BME280;7902;49.042;9.092;2023-02-15T12:30:26;100296.38;;;7.54;60.01
15604;BME280;7902;49.042;9.092;2023-02-15T12:33:07;100290.69;;;7.65;59.88
15604;BME280;7902;49.042;9.092;2023-02-15T12:35:40;100299.78;;;7.56;61.09
15604;BME280;7902;49.042;9.092;2023-02-15T12:40:35;100297.78;;;7.63;60.52
15604;BME280;7902;49.042;9.092;2023-02-15T12:43:01;100290.19;;;7.57;61.43
15604;BME280;7902;49.042;9.092;2023-02-15T12:45:35;100289.00;;;7.64;61.11
15604;BME280;7902;49.042;9.092;2023-02-15T12:50:35;100288.28;;;7.60;61.34
15604;BME280;7902;49.042;9.092;2023-02-15T12:53:22;100287.84;;;7.71;61.13
15604;BME280;7902;49.042;9.092;2023-02-15T12:58:27;100267.56;;;7.96;60.72
15604;BME280;7902;49.042;9.092;2023-02-15T13:01:19;100262.56;;;8.10;60.00
15604;BME280;7902;49.042;9.092;2023-02-15T13:06:18;100248.84;;;8.05;60.24
15604;BME280;7902;49.042;9.092;2023-02-15T13:08:52;100245.41;;;8.05;60.14
15604;BME280;7902;49.042;9.092;2023-02-15T13:11:22;100236.91;;;8.00;60.43
15604;BME280;7902;49.042;9.092;2023-02-15T13:16:31;100235.09;;;8.20;60.05
15604;BME280;7902;49.042;9.092;2023-02-15T13:19:02;100231.22;;;8.29;59.85
15604;BME280;7902;49.042;9.092;2023-02-15T13:21:37;100230.59;;;8.24;59.77
15604;BME280;7902;49.042;9.092;2023-02-15T13:26:47;100227.91;;;8.05;59.48
15604;BME280;7902;49.042;9.092;2023-02-15T13:29:44;100211.03;;;8.32;59.53
15604;BME280;7902;49.042;9.092;2023-02-15T13:32:34;100206.31;;;8.20;60.25
15604;BME280;7902;49.042;9.092;2023-02-15T13:35:04;100198.59;;;8.38;60.08
15604;BME280;7902;49.042;9.092;2023-02-15T13:37:48;100197.00;;;8.33;59.73
15604;BME280;7902;49.042;9.092;2023-02-15T13:40:40;100186.69;;;8.30;59.85
15604;BME280;7902;49.042;9.092;2023-02-15T13:54:02;100181.88;;;8.59;60.19
15604;BME280;7902;49.042;9.092;2023-02-15T14:02:03;100180.59;;;8.67;60.93
15604;BME280;7902;49.042;9.092;2023-02-15T14:09:53;100173.47;;;8.71;59.94
15604;BME280;7902;49.042;9.092;2023-02-15T14:23:56;100164.16;;;8.82;58.57
15604;BME280;7902;49.042;9.092;2023-02-15T14:26:49;100166.25;;;8.93;59.19
15604;BME280;7902;49.042;9.092;2023-02-15T14:29:49;100163.03;;;9.05;59.35
15604;BME280;7902;49.042;9.092;2023-02-15T14:32:25;100163.66;;;9.10;59.01
15604;BME280;7902;49.042;9.092;2023-02-15T14:34:56;100161.66;;;9.15;58.77
15604;BME280;7902;49.042;9.092;2023-02-15T14:40:06;100169.19;;;9.04;59.28
15604;BME280;7902;49.042;9.092;2023-02-15T14:43:01;100172.59;;;9.06;59.29
15604;BME280;7902;49.042;9.092;2023-02-15T14:45:42;100169.56;;;9.14;58.87
15604;BME280;7902;49.042;9.092;2023-02-15T14:48:22;100172.59;;;9.23;58.72
15604;BME280;7902;49.042;9.092;2023-02-15T14:50:50;100172.44;;;9.27;58.77
15604;BME280;7902;49.042;9.092;2023-02-15T15:01:15;100169.81;;;9.09;58.90
15604;BME280;7902;49.042;9.092;2023-02-15T15:03:51;100163.63;;;9.27;58.70
15604;BME280;7902;49.042;9.092;2023-02-15T15:06:33;100161.66;;;9.15;58.71
15604;BME280;7902;49.042;9.092;2023-02-15T15:11:47;100162.34;;;9.02;58.60
15604;BME280;7902;49.042;9.092;2023-02-15T15:17:02;100154.47;;;9.02;58.48
15604;BME280;7902;49.042;9.092;2023-02-15T15:22:19;100157.50;;;9.11;58.84
15604;BME280;7902;49.042;9.092;2023-02-15T15:27:43;100156.81;;;9.08;58.91
15604;BME280;7902;49.042;9.092;2023-02-15T15:35:27;100151.28;;;8.95;58.46
15604;BME280;7902;49.042;9.092;2023-02-15T15:49:12;100146.66;;;8.83;58.73
15604;BME280;7902;49.042;9.092;2023-02-15T15:51:42;100148.84;;;8.92;58.59
15604;BME280;7902;49.042;9.092;2023-02-15T15:54:15;100156.75;;;8.91;58.71
15604;BME280;7902;49.042;9.092;2023-02-15T15:56:45;100155.63;;;8.96;58.57
15604;BME280;7902;49.042;9.092;2023-02-15T15:59:26;100154.31;;;8.88;59.26
15604;BME280;7902;49.042;9.092;2023-02-15T16:01:53;100151.63;;;9.06;57.98
15604;BME280;7902;49.042;9.092;2023-02-15T16:04:29;100152.09;;;8.97;58.42
15604;BME280;7902;49.042;9.092;2023-02-15T16:09:53;100148.38;;;9.01;58.19
15604;BME280;7902;49.042;9.092;2023-02-15T16:12:20;100155.09;;;8.90;58.79
15604;BME280;7902;49.042;9.092;2023-02-15T16:14:46;100150.38;;;8.96;58.33
15604;BME280;7902;49.042;9.092;2023-02-15T16:17:21;100155.31;;;9.02;58.64
15604;BME280;7902;49.042;9.092;2023-02-15T16:19:48;100147.13;;;8.91;58.86
15604;BME280;7902;49.042;9.092;2023-02-15T16:22:20;100152.88;;;8.99;58.64
15604;BME280;7902;49.042;9.092;2023-02-15T16:27:44;100161.41;;;9.03;58.38
15604;BME280;7902;49.042;9.092;2023-02-15T16:30:18;100151.84;;;9.02;57.99
15604;BME280;7902;49.042;9.092;2023-02-15T16:32:44;100159.94;;;8.97;58.48
15604;BME280;7902;49.042;9.092;2023-02-15T16:35:16;100158.94;;;9.00;58.30
15604;BME280;7902;49.042;9.092;2023-02-15T16:37:42;100157.31;;;8.97;58.43
15604;BME280;7902;49.042;9.092;2023-02-15T16:40:27;100159.31;;;8.92;58.47
15604;BME280;7902;49.042;9.092;2023-02-15T16:42:59;100160.09;;;8.94;59.03
15604;BME280;7902;49.042;9.092;2023-02-15T16:45:27;100162.56;;;8.97;58.41
15604;BME280;7902;49.042;9.092;2023-02-15T16:47:56;100160.09;;;8.94;59.56
15604;BME280;7902;49.042;9.092;2023-02-15T16:50:35;100163.63;;;8.93;58.72
15604;BME280;7902;49.042;9.092;2023-02-15T16:53:03;100159.03;;;8.98;58.74